Time;durP1;ratioP1;P1;durP2;ratioP2;P2;SDS_P1;SDS_P2;PMS_P1;PMS_P2;Temp;Humidity;BMP_temperature;BMP_pressure;BME280_temperature;BME280_humidity;BME280_pressure;Samples;Min_cycle;Max_cycle;Signal;HPM_P1;HPM_P2
2022/10/27 00:00:41;;;;;;;4.07;1.23;;;13.80;99.90;;;;;;4990470;28;20038;-74
2022/10/27 00:03:09;;;;;;;5.95;1.55;;;13.80;99.90;;;;;;5000180;28;20046;-74
2022/10/27 00:05:35;;;;;;;5.20;1.40;;;13.80;99.90;;;;;;4982157;28;20056;-74
2022/10/27 00:08:01;;;;;;;4.30;1.45;;;13.80;99.90;;;;;;4997627;28;20049;-74
2022/10/27 00:10:27;;;;;;;3.63;1.40;;;13.70;99.90;;;;;;4999107;28;20053;-74
2022/10/27 00:12:52;;;;;;;3.53;1.30;;;13.70;99.90;;;;;;4999054;28;20048;-74
2022/10/27 00:15:18;;;;;;;4.07;1.50;;;13.70;99.90;;;;;;4997601;28;20303;-74
2022/10/27 00:17:44;;;;;;;6.07;1.87;;;13.80;99.90;;;;;;4993877;28;20053;-74
2022/10/27 00:20:10;;;;;;;7.00;1.80;;;13.80;99.90;;;;;;4982864;28;20034;-74
2022/10/27 00:22:35;;;;;;;6.13;1.52;;;13.70;99.90;;;;;;5001391;28;20373;-74
2022/10/27 00:25:02;;;;;;;7.90;1.90;;;13.80;99.90;;;;;;5000098;28;20053;-74
2022/10/27 00:27:27;;;;;;;5.55;2.55;;;13.70;99.90;;;;;;4996048;28;20052;-74
2022/10/27 00:29:53;;;;;;;4.82;1.92;;;13.70;99.90;;;;;;4997646;28;20049;-74
2022/10/27 00:32:22;;;;;;;5.03;1.50;;;13.70;99.90;;;;;;4996342;28;20053;-74
2022/10/27 00:34:50;;;;;;;3.47;1.83;;;13.70;99.90;;;;;;4999501;28;20037;-74
2022/10/27 00:37:16;;;;;;;5.35;1.75;;;13.70;99.90;;;;;;4996724;28;20038;-74
2022/10/27 00:39:42;;;;;;;6.70;2.00;;;13.70;99.90;;;;;;5001661;28;20961;-75
2022/10/27 00:42:13;;;;;;;7.38;2.20;;;13.70;99.90;;;;;;5010648;28;20456;-75
2022/10/27 00:44:48;;;;;;;5.70;2.30;;;13.70;99.90;;;;;;4934848;28;20799;-74
2022/10/27 00:47:25;;;;;;;6.07;2.63;;;13.70;99.90;;;;;;4892197;28;20334;-74
2022/10/27 00:49:57;;;;;;;7.53;2.30;;;13.70;99.90;;;;;;4998686;28;20092;-74
2022/10/27 00:52:33;;;;;;;7.05;2.38;;;13.70;99.90;;;;;;5000620;28;20056;-73
2022/10/27 00:55:08;;;;;;;6.60;2.60;;;13.70;99.90;;;;;;5002895;28;20073;-74
2022/10/27 00:57:34;;;;;;;6.03;3.03;;;13.80;99.90;;;;;;4983949;28;20448;-75
2022/10/27 01:00:02;;;;;;;4.07;2.42;;;13.80;99.90;;;;;;5002384;28;20045;-74
2022/10/27 01:02:28;;;;;;;9.05;3.50;;;13.70;99.90;;;;;;5000525;28;20492;-74
2022/10/27 01:05:00;;;;;;;5.72;2.55;;;13.70;99.90;;;;;;5005888;28;20132;-74
2022/10/27 01:07:27;;;;;;;10.23;3.38;;;13.80;99.90;;;;;;4994183;28;20049;-74
2022/10/27 01:09:52;;;;;;;10.38;2.75;;;13.70;99.90;;;;;;5003975;28;20135;-74
2022/10/27 01:12:18;;;;;;;6.70;2.78;;;13.70;99.90;;;;;;4999751;28;20085;-74
2022/10/27 01:14:44;;;;;;;9.13;2.87;;;13.80;99.90;;;;;;5003332;28;20531;-74
2022/10/27 01:18:00;;;;;;;7.93;2.92;;;13.70;99.90;;;;;;4998428;28;20045;-74
2022/10/27 01:20:44;;;;;;;7.43;3.25;;;13.70;99.90;;;;;;4961799;28;20113;-73
2022/10/27 01:23:09;;;;;;;10.30;3.22;;;13.70;99.90;;;;;;4996870;28;20531;-74
2022/10/27 01:25:51;;;;;;;9.73;3.03;;;13.70;99.90;;;;;;4994955;28;20034;-74
2022/10/27 01:28:26;;;;;;;6.15;3.08;;;13.70;99.90;;;;;;5002354;28;20924;-77
2022/10/27 01:31:00;;;;;;;7.45;2.95;;;13.80;99.90;;;;;;5003297;28;20114;-75
2022/10/27 01:33:37;;;;;;;7.80;3.00;;;13.70;99.90;;;;;;5001015;28;20046;-75
2022/10/27 01:36:11;;;;;;;6.93;3.22;;;13.80;99.90;;;;;;4996175;28;20107;-74
2022/10/27 01:38:49;;;;;;;16.50;3.55;;;13.70;99.90;;;;;;4998073;28;20065;-75
2022/10/27 01:41:21;;;;;;;12.45;3.22;;;13.70;99.90;;;;;;5000021;28;20435;-74
2022/10/27 01:43:49;;;;;;;6.68;3.97;;;13.80;99.90;;;;;;4997533;28;20197;-75
2022/10/27 01:46:16;;;;;;;11.88;3.83;;;13.80;99.90;;;;;;4995422;28;20050;-75
2022/10/27 01:48:41;;;;;;;10.88;3.55;;;13.80;99.90;;;;;;5001748;28;20041;-75
2022/10/27 01:51:08;;;;;;;6.18;3.33;;;13.80;99.90;;;;;;5003349;28;20092;-75
2022/10/27 01:53:36;;;;;;;;;;;13.80;99.90;;;;;;5000166;28;20385;-75
2022/10/27 01:56:04;;;;;;;8.27;3.40;;;13.80;99.90;;;;;;5001950;28;19925;-75
2022/10/27 01:58:41;;;;;;;11.10;3.95;;;13.80;99.90;;;;;;5000751;28;20049;-75
2022/10/27 02:01:22;;;;;;;8.75;3.67;;;13.80;99.90;;;;;;4999443;28;20049;-75
2022/10/27 02:04:25;;;;;;;10.48;4.03;;;13.90;99.90;;;;;;4997450;28;20045;-75
2022/10/27 02:06:54;;;;;;;10.13;3.83;;;13.90;99.90;;;;;;4998908;28;20073;-74
2022/10/27 02:09:38;;;;;;;7.03;3.33;;;13.90;99.90;;;;;;5000434;28;20042;-75
2022/10/27 02:12:10;;;;;;;11.48;3.97;;;13.90;99.90;;;;;;5001092;28;20037;-75
2022/10/27 02:14:37;;;;;;;7.22;3.55;;;13.90;99.90;;;;;;4998223;28;20041;-75
2022/10/27 02:17:05;;;;;;;11.02;4.03;;;13.90;99.90;;;;;;4993852;28;20043;-75
2022/10/27 02:19:37;;;;;;;6.93;3.70;;;13.90;99.90;;;;;;5016589;28;20338;-75
2022/10/27 02:22:04;;;;;;;9.45;3.88;;;13.90;99.90;;;;;;5000978;28;20100;-75
2022/10/27 02:24:30;;;;;;;10.23;4.47;;;13.90;99.90;;;;;;4999862;28;20070;-74
2022/10/27 02:27:31;;;;;;;7.78;4.18;;;13.90;99.90;;;;;;4983788;28;20208;-75
2022/10/27 02:29:58;;;;;;;7.78;3.90;;;13.90;99.90;;;;;;4959142;28;20187;-75
2022/10/27 02:32:25;;;;;;;8.63;4.10;;;13.90;99.90;;;;;;4997410;28;20507;-75
2022/10/27 02:34:52;;;;;;;11.65;4.00;;;13.80;99.90;;;;;;4996930;28;20118;-75
2022/10/27 02:37:35;;;;;;;11.23;3.40;;;13.80;99.90;;;;;;5002035;28;20691;-75
2022/10/27 02:40:02;;;;;;;10.32;3.50;;;13.80;99.90;;;;;;5000065;28;20046;-75
2022/10/27 02:42:28;;;;;;;10.82;3.78;;;13.80;99.90;;;;;;4997015;28;20204;-75
2022/10/27 02:44:53;;;;;;;10.85;4.22;;;13.80;99.90;;;;;;4988286;28;20129;-75
2022/10/27 02:47:19;;;;;;;8.50;4.32;;;13.80;99.90;;;;;;4993423;28;20057;-75
2022/10/27 02:49:45;;;;;;;12.98;4.72;;;13.90;99.90;;;;;;4984970;28;20334;-75
2022/10/27 02:52:12;;;;;;;7.63;4.00;;;13.90;99.90;;;;;;5002194;28;20049;-75
2022/10/27 02:54:38;;;;;;;6.63;4.78;;;13.80;99.90;;;;;;5063820;22;20512;-73
2022/10/27 02:57:04;;;;;;;11.70;4.97;;;13.90;99.90;;;;;;5019775;28;20034;-73
2022/10/27 02:59:30;;;;;;;9.18;3.92;;;13.90;99.90;;;;;;5012890;28;20056;-72
2022/10/27 03:01:55;;;;;;;9.57;4.40;;;13.90;99.90;;;;;;4996687;28;20125;-71
2022/10/27 03:04:21;;;;;;;7.22;4.32;;;13.90;99.90;;;;;;5018541;28;20049;-71
2022/10/27 03:06:47;;;;;;;9.90;4.30;;;13.90;99.90;;;;;;5033161;28;20274;-71
2022/10/27 03:09:12;;;;;;;11.45;4.75;;;13.90;99.90;;;;;;5020334;28;20290;-72
2022/10/27 03:11:38;;;;;;;7.43;3.92;;;13.90;99.90;;;;;;5021462;28;20163;-72
2022/10/27 03:14:04;;;;;;;8.38;4.50;;;13.90;99.90;;;;;;5015894;28;20095;-72
2022/10/27 03:16:29;;;;;;;8.77;3.70;;;13.90;99.90;;;;;;5013777;28;20065;-72
2022/10/27 03:18:55;;;;;;;9.02;3.50;;;14.00;99.90;;;;;;5019138;28;20055;-72
2022/10/27 03:21:21;;;;;;;8.00;4.57;;;14.00;99.90;;;;;;5022669;28;20214;-72
2022/10/27 03:23:46;;;;;;;11.13;6.15;;;14.00;99.90;;;;;;5018751;28;20030;-72
2022/10/27 03:26:12;;;;;;;7.38;4.07;;;14.00;99.90;;;;;;5020875;28;20052;-71
2022/10/27 03:28:38;;;;;;;6.78;4.05;;;14.00;99.90;;;;;;5020970;28;20188;-72
2022/10/27 03:31:04;;;;;;;10.47;4.40;;;14.00;99.90;;;;;;5019985;28;20103;-72
2022/10/27 03:33:30;;;;;;;9.55;4.38;;;14.00;99.90;;;;;;5018733;28;20306;-72
2022/10/27 03:35:57;;;;;;;8.10;4.22;;;14.00;99.90;;;;;;5020733;28;20033;-72
2022/10/27 03:38:22;;;;;;;7.20;3.97;;;14.00;99.90;;;;;;5012919;28;20053;-72
2022/10/27 03:40:48;;;;;;;6.88;3.92;;;13.90;99.90;;;;;;5036747;28;20045;-72
2022/10/27 03:43:13;;;;;;;11.23;5.05;;;13.90;99.90;;;;;;5020380;28;20044;-71
2022/10/27 03:45:39;;;;;;;10.37;4.80;;;14.00;99.90;;;;;;5016422;28;20403;-72
2022/10/27 03:48:11;;;;;;;6.68;4.15;;;13.90;99.90;;;;;;5015242;28;20295;-72
2022/10/27 03:50:38;;;;;;;11.68;4.00;;;13.90;99.90;;;;;;5019813;28;20064;-72
2022/10/27 03:53:04;;;;;;;;;;;13.90;99.90;;;;;;5019692;28;20561;-73
2022/10/27 03:55:31;;;;;;;8.30;3.78;;;13.90;99.90;;;;;;5022274;28;19923;-70
2022/10/27 03:57:57;;;;;;;10.15;4.38;;;13.90;99.90;;;;;;5018596;28;20045;-72
2022/10/27 04:00:23;;;;;;;9.32;4.10;;;13.90;99.90;;;;;;5021075;28;21588;-72
2022/10/27 04:02:53;;;;;;;10.00;3.97;;;14.00;99.90;;;;;;5020131;28;20132;-72
2022/10/27 04:05:18;;;;;;;7.72;3.78;;;13.90;99.90;;;;;;5013418;28;20037;-72
2022/10/27 04:07:45;;;;;;;8.27;4.05;;;13.90;99.90;;;;;;5021946;28;20094;-72
2022/10/27 04:10:11;;;;;;;7.80;4.05;;;13.90;99.90;;;;;;5016536;28;20049;-72
2022/10/27 04:12:36;;;;;;;9.48;4.78;;;13.90;99.90;;;;;;5021046;28;20045;-72
2022/10/27 04:15:03;;;;;;;7.23;3.87;;;13.90;99.90;;;;;;5020528;28;20092;-71
2022/10/27 04:17:28;;;;;;;10.57;3.42;;;13.80;99.90;;;;;;5016336;28;20442;-71
2022/10/27 04:19:54;;;;;;;7.63;4.40;;;13.80;99.90;;;;;;5023631;28;20514;-72
2022/10/27 04:22:19;;;;;;;8.98;4.10;;;13.80;99.90;;;;;;5025990;28;20170;-71
2022/10/27 04:24:45;;;;;;;8.90;4.00;;;13.80;99.90;;;;;;5021321;28;20046;-72
2022/10/27 04:27:11;;;;;;;8.37;4.07;;;13.80;99.90;;;;;;5040454;28;20348;-72
2022/10/27 04:29:36;;;;;;;6.45;3.67;;;13.80;99.90;;;;;;5023011;28;20115;-72
2022/10/27 04:32:02;;;;;;;7.50;3.87;;;13.70;99.90;;;;;;5024477;28;20112;-73
2022/10/27 04:34:28;;;;;;;6.90;4.07;;;13.70;99.90;;;;;;5019471;28;20295;-73
2022/10/27 04:36:54;;;;;;;7.60;4.27;;;13.70;99.90;;;;;;5016698;28;20096;-72
2022/10/27 04:39:20;;;;;;;8.23;4.40;;;13.70;99.90;;;;;;5040847;28;20286;-76
2022/10/27 04:41:46;;;;;;;7.47;3.40;;;13.70;99.90;;;;;;5024562;28;20111;-72
2022/10/27 04:44:11;;;;;;;13.40;4.20;;;13.70;99.90;;;;;;5023849;28;20037;-72
2022/10/27 04:46:38;;;;;;;7.33;3.60;;;13.70;99.90;;;;;;5018448;28;20397;-74
2022/10/27 04:49:03;;;;;;;7.30;4.00;;;13.70;99.90;;;;;;5020047;28;20289;-74
2022/10/27 04:51:29;;;;;;;7.23;3.83;;;13.70;99.90;;;;;;5007810;28;20042;-73
2022/10/27 04:53:54;;;;;;;9.77;4.20;;;13.60;99.90;;;;;;5018235;28;20290;-74
2022/10/27 04:56:20;;;;;;;9.97;4.17;;;13.60;99.90;;;;;;5021418;28;20289;-78
2022/10/27 04:58:46;;;;;;;8.68;4.03;;;13.60;99.90;;;;;;5013835;28;20538;-76
2022/10/27 05:01:13;;;;;;;11.77;4.35;;;13.60;99.90;;;;;;5038475;28;20495;-72
2022/10/27 05:03:38;;;;;;;9.80;3.45;;;13.60;99.90;;;;;;5013854;28;20125;-73
2022/10/27 05:06:04;;;;;;;10.13;3.47;;;13.60;99.90;;;;;;5021989;28;20164;-72
2022/10/27 05:08:31;;;;;;;11.85;4.05;;;13.60;99.90;;;;;;5020666;28;20046;-71
2022/10/27 05:10:57;;;;;;;9.25;3.60;;;13.60;99.90;;;;;;5025128;28;20045;-72
2022/10/27 05:13:23;;;;;;;6.27;3.60;;;13.70;99.90;;;;;;5023363;28;20446;-72
2022/10/27 05:15:48;;;;;;;7.68;4.32;;;13.70;99.90;;;;;;5019007;28;20291;-72
2022/10/27 05:18:14;;;;;;;6.77;3.43;;;13.60;99.90;;;;;;5026458;28;20057;-72
2022/10/27 05:20:39;;;;;;;8.00;3.73;;;13.60;99.90;;;;;;5023501;28;20361;-73
2022/10/27 05:23:05;;;;;;;6.70;3.77;;;13.70;99.90;;;;;;5021407;28;20601;-72
2022/10/27 05:25:31;;;;;;;11.25;4.40;;;13.70;99.90;;;;;;5023399;28;20282;-72
2022/10/27 05:28:13;;;;;;;7.33;3.70;;;13.70;99.90;;;;;;5020298;28;20111;-72
2022/10/27 05:30:38;;;;;;;6.18;3.85;;;13.70;99.90;;;;;;5021065;28;20740;-75
2022/10/27 05:33:04;;;;;;;8.88;4.18;;;13.80;99.90;;;;;;5018423;28;20061;-74
2022/10/27 05:35:30;;;;;;;11.63;4.28;;;13.70;99.90;;;;;;5024684;28;20519;-72
2022/10/27 05:37:55;;;;;;;8.90;4.17;;;13.70;99.90;;;;;;5025295;28;20116;-71
2022/10/27 05:40:21;;;;;;;9.57;4.53;;;13.70;99.90;;;;;;5019829;28;21786;-73
2022/10/27 05:42:54;;;;;;;7.00;4.10;;;13.80;99.90;;;;;;4999241;28;20153;-73
2022/10/27 05:45:22;;;;;;;10.02;4.35;;;13.80;99.90;;;;;;5026486;28;20115;-71
2022/10/27 05:47:48;;;;;;;11.65;4.90;;;13.80;99.90;;;;;;5020400;28;20114;-72
2022/10/27 05:50:14;;;;;;;9.50;4.47;;;13.90;99.90;;;;;;5018202;28;20065;-72
2022/10/27 05:52:39;;;;;;;11.57;5.32;;;13.90;99.90;;;;;;5021166;28;20049;-72
2022/10/27 05:55:05;;;;;;;10.47;4.70;;;13.80;99.90;;;;;;5023209;28;20372;-72
2022/10/27 05:57:31;;;;;;;8.50;4.78;;;13.80;99.90;;;;;;5012189;28;20041;-73
2022/10/27 05:59:57;;;;;;;9.20;4.47;;;13.90;99.90;;;;;;5011119;28;20073;-73
2022/10/27 06:02:22;;;;;;;9.13;5.17;;;13.90;99.90;;;;;;5019871;28;20373;-73
2022/10/27 06:04:48;;;;;;;8.00;4.40;;;13.90;99.90;;;;;;5014972;28;20399;-73
2022/10/27 06:07:13;;;;;;;8.87;4.30;;;13.90;99.90;;;;;;5011683;28;20301;-72
2022/10/27 06:09:39;;;;;;;8.97;5.23;;;13.90;99.90;;;;;;5017661;28;20108;-73
2022/10/27 06:12:04;;;;;;;14.20;4.77;;;13.90;99.90;;;;;;5022564;28;20037;-72
2022/10/27 06:14:30;;;;;;;8.53;4.13;;;13.90;99.90;;;;;;5024129;28;20294;-73
2022/10/27 06:16:56;;;;;;;10.00;4.40;;;13.90;99.90;;;;;;5022024;28;20103;-72
2022/10/27 06:19:21;;;;;;;9.63;4.57;;;13.90;99.90;;;;;;5017728;28;20289;-73
2022/10/27 06:21:47;;;;;;;7.05;4.47;;;13.90;99.90;;;;;;5029617;28;20038;-73
2022/10/27 06:24:13;;;;;;;8.07;4.53;;;13.80;99.90;;;;;;5021227;28;20069;-73
2022/10/27 06:26:38;;;;;;;7.40;4.37;;;13.90;99.90;;;;;;5023525;28;20099;-72
2022/10/27 06:29:04;;;;;;;9.67;4.90;;;13.80;99.90;;;;;;5023459;28;20125;-72
2022/10/27 06:31:29;;;;;;;12.80;5.13;;;13.80;99.90;;;;;;5018816;28;20446;-72
2022/10/27 06:33:55;;;;;;;10.15;4.63;;;13.90;99.90;;;;;;5022680;28;20072;-72
2022/10/27 06:36:20;;;;;;;8.50;4.63;;;13.80;99.90;;;;;;5021101;28;20087;-72
2022/10/27 06:38:46;;;;;;;8.57;4.57;;;13.90;99.90;;;;;;5014816;28;20295;-72
2022/10/27 06:41:12;;;;;;;10.43;4.60;;;13.80;99.90;;;;;;5013595;28;20121;-73
2022/10/27 06:43:37;;;;;;;9.20;4.90;;;13.80;99.90;;;;;;5023316;28;20297;-72
2022/10/27 06:46:03;;;;;;;9.40;5.23;;;13.90;99.90;;;;;;5022427;28;20042;-73
2022/10/27 06:48:28;;;;;;;8.30;4.32;;;13.80;99.90;;;;;;5022577;28;20487;-73
2022/10/27 06:50:54;;;;;;;10.43;5.07;;;13.80;99.90;;;;;;5020183;28;20049;-71
2022/10/27 06:53:20;;;;;;;13.17;5.27;;;13.80;99.90;;;;;;5001352;28;20049;-72
2022/10/27 06:55:45;;;;;;;11.43;5.32;;;13.80;99.90;;;;;;5018229;28;20083;-73
2022/10/27 06:58:12;;;;;;;12.67;4.87;;;13.80;99.90;;;;;;5024511;28;20102;-72
2022/10/27 07:00:38;;;;;;;;;;;13.80;99.90;;;;;;5019645;28;20193;-72
2022/10/27 07:03:08;;;;;;;11.38;4.88;;;13.80;99.90;;;;;;5012970;28;19979;-72
2022/10/27 07:05:35;;;;;;;15.93;6.07;;;13.80;99.90;;;;;;5015130;28;20503;-72
2022/10/27 07:08:00;;;;;;;;;;;13.80;99.90;;;;;;5003559;28;20092;-71
2022/10/27 07:10:26;;;;;;;9.32;4.82;;;13.80;99.90;;;;;;5024820;28;20386;-72
2022/10/27 07:12:57;;;;;;;9.90;5.13;;;13.80;99.90;;;;;;5018085;28;20076;-73
2022/10/27 07:15:24;;;;;;;10.70;5.13;;;13.80;99.90;;;;;;5019350;28;20057;-72
2022/10/27 07:17:58;;;;;;;8.38;4.55;;;13.80;99.90;;;;;;5020223;28;20045;-72
2022/10/27 07:20:24;;;;;;;10.65;5.18;;;13.80;99.90;;;;;;5017514;28;20107;-72
2022/10/27 07:22:49;;;;;;;8.60;4.82;;;13.80;99.90;;;;;;5017831;28;20446;-72
2022/10/27 07:25:15;;;;;;;8.83;5.00;;;13.80;99.90;;;;;;5018424;28;20033;-72
2022/10/27 07:27:41;;;;;;;7.22;3.88;;;13.80;99.90;;;;;;5023754;28;20038;-72
2022/10/27 07:30:07;;;;;;;10.60;4.40;;;13.80;99.90;;;;;;5018259;28;20065;-73
2022/10/27 07:32:32;;;;;;;8.73;5.18;;;13.80;99.90;;;;;;5025082;28;20288;-77
2022/10/27 07:34:58;;;;;;;8.23;4.07;;;13.80;99.90;;;;;;5016802;28;20042;-72
2022/10/27 07:37:24;;;;;;;11.32;4.53;;;13.90;99.90;;;;;;5014293;28;20104;-72
2022/10/27 07:39:49;;;;;;;8.43;4.60;;;13.90;99.90;;;;;;5014593;28;20053;-72
2022/10/27 07:42:16;;;;;;;9.75;3.72;;;13.80;99.90;;;;;;5014656;28;20037;-72
2022/10/27 07:44:42;;;;;;;;;;;13.90;99.90;;;;;;5016244;28;20038;-71
2022/10/27 07:47:07;;;;;;;6.07;3.67;;;13.90;99.90;;;;;;5010321;28;19917;-71
2022/10/27 07:49:33;;;;;;;8.15;4.30;;;13.90;99.90;;;;;;5016559;28;20091;-72
2022/10/27 07:51:59;;;;;;;7.85;4.18;;;14.00;99.90;;;;;;5021889;28;20117;-72
2022/10/27 07:54:24;;;;;;;11.57;4.10;;;14.00;99.90;;;;;;5019220;28;20037;-72
2022/10/27 07:56:51;;;;;;;9.82;4.82;;;14.00;99.90;;;;;;5019025;28;20370;-72
2022/10/27 07:59:16;;;;;;;9.32;3.85;;;14.10;99.90;;;;;;5018192;28;20073;-72
2022/10/27 08:01:42;;;;;;;10.15;4.40;;;14.10;99.90;;;;;;5022513;28;20072;-72
2022/10/27 08:04:08;;;;;;;6.28;3.85;;;14.10;99.90;;;;;;5022161;28;20048;-72
2022/10/27 08:06:33;;;;;;;9.07;4.10;;;14.10;99.90;;;;;;5023802;28;20362;-72
2022/10/27 08:08:59;;;;;;;8.23;3.80;;;14.10;99.90;;;;;;5026131;28;20052;-72
2022/10/27 08:11:24;;;;;;;7.20;3.60;;;14.20;99.90;;;;;;5021084;28;20099;-71
2022/10/27 08:13:51;;;;;;;7.77;3.90;;;14.20;99.90;;;;;;5017074;28;20644;-73
2022/10/27 08:16:16;;;;;;;;;;;14.20;99.90;;;;;;5024563;28;20294;-71
2022/10/27 08:18:42;;;;;;;6.05;2.80;;;14.20;99.90;;;;;;5027241;28;19929;-72
2022/10/27 08:21:08;;;;;;;8.40;3.47;;;14.20;99.90;;;;;;5024814;28;20033;-72
2022/10/27 08:23:33;;;;;;;6.40;3.10;;;14.30;99.90;;;;;;5016894;28;20125;-72
2022/10/27 08:25:59;;;;;;;5.30;3.05;;;14.20;99.90;;;;;;5022631;28;20287;-72
2022/10/27 08:28:25;;;;;;;4.95;2.83;;;14.30;99.90;;;;;;5023877;28;20495;-72
2022/10/27 08:30:51;;;;;;;8.77;3.10;;;14.40;99.90;;;;;;5020006;28;20396;-71
2022/10/27 08:33:17;;;;;;;6.45;2.80;;;14.40;99.90;;;;;;5032646;28;20049;-71
2022/10/27 08:35:43;;;;;;;5.45;2.65;;;14.50;99.90;;;;;;5020303;28;20483;-72
2022/10/27 08:38:15;;;;;;;9.90;3.33;;;14.60;99.90;;;;;;5017734;28;20041;-71
2022/10/27 08:40:44;;;;;;;6.65;2.70;;;14.60;99.90;;;;;;5020191;28;20291;-72
2022/10/27 08:44:01;;;;;;;8.35;3.25;;;14.70;99.90;;;;;;5021602;28;20041;-72
2022/10/27 08:46:46;;;;;;;8.57;3.63;;;14.80;99.90;;;;;;4977730;28;20108;-72
2022/10/27 08:49:30;;;;;;;8.13;3.42;;;14.90;99.90;;;;;;5023703;28;20099;-72
2022/10/27 08:52:26;;;;;;;6.65;3.00;;;15.00;99.90;;;;;;5016003;28;20049;-72
2022/10/27 08:54:59;;;;;;;7.28;2.97;;;15.10;99.90;;;;;;5027863;22;20041;-71
2022/10/27 08:57:29;;;;;;;7.53;3.28;;;15.10;99.90;;;;;;5004701;28;20243;-71
2022/10/27 08:59:56;;;;;;;7.03;2.53;;;15.20;99.90;;;;;;5009031;28;20278;-72
2022/10/27 09:02:43;;;;;;;6.10;2.83;;;15.30;99.90;;;;;;4993185;28;20037;-73
2022/10/27 09:05:33;;;;;;;4.75;2.55;;;15.40;99.90;;;;;;5007109;28;20041;-73
2022/10/27 09:08:19;;;;;;;6.43;2.45;;;15.50;99.90;;;;;;5011844;28;20099;-72
2022/10/27 09:11:19;;;;;;;5.60;2.40;;;15.50;99.90;;;;;;5009584;28;20487;-72
2022/10/27 09:14:01;;;;;;;5.00;2.63;;;15.60;99.90;;;;;;4954526;28;20106;-72
2022/10/27 09:16:40;;;;;;;8.30;3.40;;;15.60;99.90;;;;;;5008832;28;20052;-73
2022/10/27 09:19:12;;;;;;;3.63;2.28;;;15.70;99.90;;;;;;5007389;28;20061;-72
2022/10/27 09:21:42;;;;;;;5.18;2.58;;;15.70;99.90;;;;;;5007277;28;20511;-73
2022/10/27 09:24:16;;;;;;;5.93;2.53;;;15.80;99.90;;;;;;5004730;28;20033;-73
2022/10/27 09:26:44;;;;;;;5.25;2.13;;;15.80;99.90;;;;;;5005094;28;20038;-72
2022/10/27 09:29:35;;;;;;;9.75;2.47;;;15.90;99.90;;;;;;5007384;28;20092;-73
2022/10/27 09:32:22;;;;;;;5.60;2.30;;;15.90;99.90;;;;;;5005959;28;20433;-72
2022/10/27 09:34:53;;;;;;;7.53;2.45;;;16.00;99.90;;;;;;5008989;28;20048;-73
2022/10/27 09:37:22;;;;;;;5.32;2.30;;;16.00;99.90;;;;;;5005777;28;20045;-72
2022/10/27 09:39:50;;;;;;;4.63;2.63;;;16.10;99.90;;;;;;5008022;28;20213;-72
2022/10/27 09:42:17;;;;;;;4.50;2.17;;;16.10;99.90;;;;;;5004533;28;20103;-73
2022/10/27 09:44:52;;;;;;;5.32;2.40;;;16.20;99.90;;;;;;5006847;28;20046;-73
2022/10/27 09:47:19;;;;;;;7.20;2.95;;;16.20;99.90;;;;;;5006389;28;20500;-73
2022/10/27 09:49:46;;;;;;;6.07;2.50;;;16.20;99.90;;;;;;5013889;28;20107;-72
2022/10/27 09:52:16;;;;;;;5.88;2.53;;;16.20;99.90;;;;;;5005825;28;20042;-73
2022/10/27 09:55:03;;;;;;;9.38;3.22;;;16.30;99.90;;;;;;5003000;28;20096;-73
2022/10/27 09:57:33;;;;;;;6.70;2.20;;;16.30;99.90;;;;;;5001366;28;20094;-73
2022/10/27 10:00:01;;;;;;;5.75;2.30;;;16.30;99.90;;;;;;5005575;28;20042;-73
2022/10/27 10:02:39;;;;;;;4.30;1.80;;;16.40;99.90;;;;;;5002441;28;20045;-72
2022/10/27 10:05:20;;;;;;;5.25;2.00;;;16.40;99.90;;;;;;5006105;28;20053;-72
2022/10/27 10:07:46;;;;;;;6.70;2.08;;;16.40;99.90;;;;;;5003238;28;20034;-72
2022/10/27 10:10:25;;;;;;;9.88;2.15;;;16.50;99.90;;;;;;5004952;28;20163;-72
2022/10/27 10:13:03;;;;;;;4.95;2.20;;;16.60;99.90;;;;;;5005502;28;20046;-72
2022/10/27 10:15:31;;;;;;;7.72;2.22;;;16.70;99.90;;;;;;4991226;28;20041;-72
2022/10/27 10:17:59;;;;;;;3.97;1.60;;;16.70;99.90;;;;;;5006755;28;20088;-72
2022/10/27 10:20:36;;;;;;;4.55;1.67;;;16.80;99.90;;;;;;5010815;28;20043;-72
2022/10/27 10:23:05;;;;;;;;;;;16.80;99.90;;;;;;5007411;28;20041;-72
2022/10/27 10:25:38;;;;;;;3.78;1.75;;;16.90;99.90;;;;;;5004310;28;20017;-72
2022/10/27 10:28:05;;;;;;;4.90;1.60;;;17.00;99.90;;;;;;5003183;28;20077;-73
2022/10/27 10:30:37;;;;;;;7.15;2.30;;;17.00;99.90;;;;;;5006791;28;20533;-72
2022/10/27 10:33:05;;;;;;;4.03;1.60;;;17.10;99.90;;;;;;5005641;28;20053;-72
2022/10/27 10:35:48;;;;;;;2.83;1.27;;;17.10;99.90;;;;;;5005604;28;20297;-72
2022/10/27 10:38:23;;;;;;;4.57;1.70;;;17.20;99.90;;;;;;4988932;28;20492;-72
2022/10/27 10:41:05;;;;;;;4.38;1.48;;;17.20;99.90;;;;;;5004657;28;20044;-72
2022/10/27 10:43:34;;;;;;;5.13;1.45;;;17.30;99.90;;;;;;4986867;28;20549;-73
2022/10/27 10:46:00;;;;;;;3.40;1.58;;;17.40;99.90;;;;;;5001280;28;20041;-72
2022/10/27 10:48:41;;;;;;;;;;;17.50;99.90;;;;;;4987953;28;20050;-72
2022/10/27 10:51:10;;;;;;;4.22;1.58;;;17.60;99.90;;;;;;5003671;28;19917;-72
2022/10/27 10:53:46;;;;;;;5.72;1.50;;;17.70;99.90;;;;;;5000539;28;20040;-72
2022/10/27 10:56:30;;;;;;;7.80;1.30;;;17.70;99.90;;;;;;5003821;28;20038;-72
2022/10/27 10:59:12;;;;;;;3.17;1.20;;;17.80;99.90;;;;;;5005571;28;20467;-72
2022/10/27 11:01:47;;;;;;;2.47;1.17;;;17.80;99.90;;;;;;5002530;28;20053;-72
2022/10/27 11:04:17;;;;;;;4.97;1.25;;;17.90;99.90;;;;;;5010193;28;20508;-71
2022/10/27 11:07:20;;;;;;;3.78;1.27;;;18.00;99.90;;;;;;5004908;28;20488;-73
2022/10/27 11:10:22;;;;;;;6.05;2.05;;;18.00;99.90;;;;;;4988241;28;20221;-73
2022/10/27 11:12:49;;;;;;;3.47;1.30;;;18.10;99.90;;;;;;5006306;28;20100;-72
2022/10/27 11:15:26;;;;;;;3.42;1.20;;;18.10;99.90;;;;;;4999912;28;20121;-72
2022/10/27 11:17:56;;;;;;;2.78;1.02;;;18.20;99.90;;;;;;5002495;28;20046;-72
2022/10/27 11:20:34;;;;;;;2.15;1.20;;;18.20;99.90;;;;;;5002938;28;20038;-74
2022/10/27 11:23:09;;;;;;;3.85;1.02;;;18.20;99.90;;;;;;5001068;28;20172;-74
2022/10/27 11:25:36;;;;;;;2.05;0.90;;;18.20;99.90;;;;;;5001225;28;20437;-71
2022/10/27 11:28:10;;;;;;;3.92;0.98;;;18.20;99.90;;;;;;5006810;28;20046;-72
2022/10/27 11:30:42;;;;;;;2.83;1.05;;;18.30;99.90;;;;;;5006141;28;20045;-72
2022/10/27 11:33:23;;;;;;;3.35;1.35;;;18.30;99.90;;;;;;5005345;28;20544;-72
2022/10/27 11:36:03;;;;;;;2.95;1.17;;;18.40;99.90;;;;;;5006570;28;20054;-72
2022/10/27 11:38:36;;;;;;;4.15;1.10;;;18.50;99.90;;;;;;5006045;28;20038;-72
2022/10/27 11:41:37;;;;;;;3.15;1.15;;;18.60;99.90;;;;;;5004741;28;20030;-72
2022/10/27 11:44:14;;;;;;;3.33;0.90;;;18.70;99.90;;;;;;4983928;28;20038;-72
2022/10/27 11:46:59;;;;;;;1.90;0.85;;;18.80;99.90;;;;;;4994953;28;20049;-72
2022/10/27 11:49:37;;;;;;;2.45;0.90;;;18.90;99.90;;;;;;5005266;28;20096;-72
2022/10/27 11:52:17;;;;;;;2.33;0.82;;;18.90;99.90;;;;;;5006952;28;20038;-72
2022/10/27 11:54:42;;;;;;;4.10;1.30;;;19.00;99.90;;;;;;5005606;28;20046;-72
2022/10/27 11:57:45;;;;;;;3.17;0.98;;;19.20;99.90;;;;;;5010604;28;20064;-72
2022/10/27 12:00:22;;;;;;;5.55;1.17;;;19.30;99.90;;;;;;5005796;28;20112;-73
2022/10/27 12:02:48;;;;;;;;;;;19.50;99.90;;;;;;5006441;28;20926;-73
2022/10/27 12:05:20;;;;;;;2.60;1.08;;;19.60;99.90;;;;;;5007607;28;20426;-72
2022/10/27 12:07:46;;;;;;;8.02;1.48;;;19.70;99.90;;;;;;5006878;28;20042;-72
2022/10/27 12:10:34;;;;;;;2.53;1.02;;;19.90;99.90;;;;;;5007356;28;20052;-72
2022/10/27 12:13:14;;;;;;;1.45;0.70;;;20.00;99.90;;;;;;4965625;28;20491;-72
2022/10/27 12:15:52;;;;;;;2.65;0.75;;;20.20;99.90;;;;;;4999973;28;20404;-73
2022/10/27 12:18:27;;;;;;;3.33;1.05;;;20.20;99.90;;;;;;5006810;28;20337;-72
2022/10/27 12:21:19;;;;;;;7.93;0.85;;;20.30;99.90;;;;;;4987055;28;20069;-73
2022/10/27 12:23:58;;;;;;;4.25;0.88;;;20.40;99.90;;;;;;5002538;28;20053;-73
2022/10/27 12:26:33;;;;;;;3.05;0.70;;;20.40;99.90;;;;;;5009609;28;20042;-73
2022/10/27 12:29:04;;;;;;;6.63;1.23;;;20.30;99.90;;;;;;5007438;28;20511;-72
2022/10/27 12:31:33;;;;;;;2.20;0.98;;;20.20;99.90;;;;;;5004912;28;20325;-73
2022/10/27 12:34:06;;;;;;;1.33;0.80;;;20.10;99.90;;;;;;4997182;28;20179;-72
2022/10/27 12:36:45;;;;;;;4.78;0.98;;;20.00;99.90;;;;;;5006351;28;20050;-72
2022/10/27 12:39:24;;;;;;;4.07;1.08;;;19.90;99.90;;;;;;5005350;28;20527;-72
2022/10/27 12:42:35;;;;;;;2.55;0.73;;;19.80;99.90;;;;;;5005212;28;20399;-72
2022/10/27 12:45:34;;;;;;;1.35;0.60;;;19.80;99.90;;;;;;5005926;28;20042;-72
2022/10/27 12:48:18;;;;;;;2.58;0.68;;;19.70;99.90;;;;;;5008548;28;20053;-72
2022/10/27 12:51:06;;;;;;;2.55;0.75;;;19.60;99.90;;;;;;5008779;28;20053;-73
2022/10/27 12:53:39;;;;;;;3.33;1.35;;;19.60;99.90;;;;;;5008523;28;20050;-72
2022/10/27 12:56:14;;;;;;;2.53;0.63;;;19.60;99.90;;;;;;5009611;28;20042;-72
2022/10/27 12:58:58;;;;;;;1.52;0.70;;;19.60;99.90;;;;;;5008400;28;20045;-73
2022/10/27 13:01:38;;;;;;;1.65;0.50;;;19.50;99.90;;;;;;5006801;28;20042;-72
2022/10/27 13:04:25;;;;;;;3.42;1.27;;;19.40;99.90;;;;;;4988818;28;20037;-72
2022/10/27 13:06:53;;;;;;;2.58;0.57;;;19.40;99.90;;;;;;5004891;28;20045;-72